createdAt,value
2023-03-05T00:01:18.058Z,21.15
2023-03-05T00:03:49.785Z,26.40
2023-03-05T00:06:26.944Z,20.90
2023-03-05T00:08:58.351Z,25.52
2023-03-05T00:11:36.416Z,25.10
2023-03-05T00:14:06.587Z,22.98
2023-03-05T00:16:33.976Z,26.30
2023-03-05T00:19:01.601Z,25.23
2023-03-05T00:21:34.115Z,27.77
2023-03-05T00:24:05.273Z,30.08
2023-03-05T00:26:34.335Z,27.70
2023-03-05T00:29:01.087Z,35.20
2023-03-05T00:31:35.390Z,48.80
2023-03-05T00:34:08.301Z,61.50
2023-03-05T00:36:39.304Z,53.00
2023-03-05T00:39:13.783Z,58.60
2023-03-05T00:41:40.740Z,61.28
2023-03-05T00:44:07.436Z,94.20
2023-03-05T00:46:49.322Z,56.53
2023-03-05T00:49:16.141Z,46.65
2023-03-05T00:51:42.882Z,74.97
2023-03-05T00:54:35.137Z,63.00
2023-03-05T00:57:03.334Z,77.47
2023-03-05T00:59:29.948Z,71.82
2023-03-05T01:01:56.669Z,54.67
2023-03-05T01:04:28.948Z,34.13
2023-03-05T01:09:22.139Z,22.98
2023-03-05T01:11:48.772Z,24.25
2023-03-05T01:14:18.577Z,29.77
2023-03-05T01:16:45.323Z,25.85
2023-03-05T01:19:12.795Z,23.23
2023-03-05T01:21:42.421Z,24.42
2023-03-05T01:24:15.007Z,24.27
2023-03-05T01:26:41.705Z,27.55
2023-03-05T01:29:08.386Z,27.70
2023-03-05T01:31:35.225Z,32.08
2023-03-05T01:34:02.457Z,28.27
2023-03-05T01:36:29.162Z,32.75
2023-03-05T01:38:55.903Z,26.95
2023-03-05T01:41:22.584Z,27.67
2023-03-05T01:43:49.448Z,36.33
2023-03-05T01:46:38.662Z,26.15
2023-03-05T01:49:20.228Z,28.52
2023-03-05T01:52:02.890Z,27.77
2023-03-05T01:54:55.798Z,27.27
2023-03-05T01:57:31.096Z,23.17
2023-03-05T02:00:01.984Z,27.38
2023-03-05T02:02:29.419Z,30.05
2023-03-05T02:05:02.462Z,26.42
2023-03-05T02:07:31.100Z,29.75
2023-03-05T02:09:57.863Z,27.98
2023-03-05T02:12:24.675Z,23.25
2023-03-05T02:14:58.981Z,32.78
2023-03-05T02:17:27.777Z,24.02
2023-03-05T02:20:02.993Z,30.67
2023-03-05T02:22:29.671Z,27.27
2023-03-05T02:24:56.293Z,28.40
2023-03-05T02:27:34.708Z,23.23
2023-03-05T02:30:02.600Z,24.98
2023-03-05T02:32:29.461Z,26.95
2023-03-05T02:35:20.141Z,28.52
2023-03-05T02:37:47.005Z,29.10
2023-03-05T02:40:14.176Z,26.40
2023-03-05T02:42:41.400Z,30.90
2023-03-05T02:45:09.323Z,26.98
2023-03-05T02:47:35.930Z,28.55
2023-03-05T02:50:03.312Z,30.10
2023-03-05T02:52:31.215Z,33.50
2023-03-05T02:54:57.924Z,25.48
2023-03-05T02:57:24.759Z,34.65
2023-03-05T02:59:51.909Z,32.88
2023-03-05T03:02:18.603Z,24.25
2023-03-05T03:04:45.551Z,27.05
2023-03-05T03:07:13.338Z,26.10
2023-03-05T03:09:48.597Z,35.28
2023-03-05T03:12:26.262Z,25.73
2023-03-05T03:14:55.584Z,26.55
2023-03-05T03:17:26.858Z,33.28
2023-03-05T03:20:12.085Z,20.80
2023-03-05T03:22:53.740Z,24.98
2023-03-05T03:25:22.928Z,29.70
2023-03-05T03:27:49.627Z,22.27
2023-03-05T03:30:16.737Z,25.70
2023-03-05T03:32:43.814Z,19.15
2023-03-05T03:35:16.776Z,28.67
2023-03-05T03:37:50.355Z,29.83
2023-03-05T03:40:24.122Z,36.00
2023-03-05T03:42:54.440Z,30.92
2023-03-05T03:45:22.232Z,29.50
2023-03-05T03:48:01.514Z,25.00
2023-03-05T03:50:37.482Z,28.75
2023-03-05T03:53:09.619Z,23.98
2023-03-05T03:55:36.298Z,30.05
2023-03-05T03:58:03.350Z,31.52
2023-03-05T04:00:34.512Z,36.95
2023-03-05T04:03:09.278Z,32.05
2023-03-05T04:05:53.473Z,26.23
2023-03-05T04:08:20.179Z,26.25
2023-03-05T04:10:46.866Z,30.52
2023-03-05T04:13:19.110Z,25.13
2023-03-05T04:15:59.208Z,28.27
2023-03-05T04:18:28.539Z,34.30
2023-03-05T04:21:00.321Z,27.40
2023-03-05T04:23:32.190Z,41.13
2023-03-05T04:26:04.040Z,28.88
2023-03-05T04:28:31.236Z,29.17
2023-03-05T04:30:58.234Z,34.83
2023-03-05T04:33:25.187Z,24.77
2023-03-05T04:35:56.989Z,30.38
2023-03-05T04:38:23.791Z,24.58
2023-03-05T04:41:05.044Z,28.35
2023-03-05T04:43:31.709Z,27.88
2023-03-05T04:45:58.387Z,29.80
2023-03-05T04:48:43.467Z,34.92
2023-03-05T04:51:34.714Z,39.67
2023-03-05T04:54:01.379Z,33.13
2023-03-05T04:56:28.024Z,43.83
2023-03-05T04:58:57.973Z,34.55
2023-03-05T05:01:27.704Z,27.90
2023-03-05T05:03:57.446Z,34.45
2023-03-05T05:06:36.925Z,38.53
2023-03-05T05:09:03.809Z,39.20
2023-03-05T05:11:30.413Z,32.85
2023-03-05T05:13:57.183Z,37.33
2023-03-05T05:16:24.088Z,25.83
2023-03-05T05:19:05.244Z,31.30
2023-03-05T05:21:42.017Z,26.02
2023-03-05T05:24:08.692Z,44.78
2023-03-05T05:26:35.694Z,27.23
2023-03-05T05:29:02.378Z,30.75
2023-03-05T05:31:29.033Z,32.55
2023-03-05T05:33:55.706Z,29.73
2023-03-05T05:36:22.803Z,42.10
2023-03-05T05:41:33.354Z,47.00
2023-03-05T05:44:00.041Z,41.38
2023-03-05T05:46:29.866Z,37.10
2023-03-05T05:48:56.532Z,30.65
2023-03-05T05:51:23.885Z,39.05
2023-03-05T05:54:06.046Z,29.45
2023-03-05T05:56:45.064Z,34.45
2023-03-05T05:59:11.887Z,35.38
2023-03-05T06:01:38.589Z,32.10
2023-03-05T06:04:08.725Z,36.63
2023-03-05T06:06:41.150Z,36.38
2023-03-05T06:09:07.805Z,32.88
2023-03-05T06:11:34.538Z,30.75
2023-03-05T06:14:03.800Z,33.15
2023-03-05T06:16:36.651Z,35.47
2023-03-05T06:19:06.395Z,29.30
2023-03-05T06:21:33.468Z,38.45
2023-03-05T06:24:00.145Z,30.45
2023-03-05T06:26:26.963Z,30.92
2023-03-05T06:28:54.067Z,38.58
2023-03-05T06:31:23.414Z,34.55
2023-03-05T06:34:06.380Z,34.50
2023-03-05T06:36:33.077Z,36.28
2023-03-05T06:38:59.826Z,30.13
2023-03-05T06:41:29.389Z,39.22
2023-03-05T06:43:56.980Z,32.47
2023-03-05T06:46:28.879Z,34.97
2023-03-05T06:48:57.924Z,29.10
2023-03-05T06:51:28.446Z,34.40
2023-03-05T06:53:56.684Z,31.10
2023-03-05T06:56:23.513Z,28.42
2023-03-05T06:58:51.895Z,46.92
2023-03-05T07:01:20.543Z,42.40
2023-03-05T07:03:52.562Z,33.00
2023-03-05T07:06:19.951Z,40.28
2023-03-05T07:08:47.068Z,44.25
2023-03-05T07:11:16.685Z,32.53
2023-03-05T07:13:43.839Z,38.45
2023-03-05T07:16:15.586Z,46.38
2023-03-05T07:18:42.531Z,58.33
2023-03-05T07:21:12.877Z,40.03
2023-03-05T07:23:39.638Z,55.90
2023-03-05T07:26:06.967Z,49.67
2023-03-05T07:28:34.496Z,32.90
2023-03-05T07:31:04.557Z,29.08
2023-03-05T07:33:32.180Z,39.08
2023-03-05T07:35:59.026Z,28.65
2023-03-05T07:38:25.698Z,29.40
2023-03-05T07:40:52.393Z,32.60
2023-03-05T07:43:19.326Z,28.90
2023-03-05T07:45:46.632Z,34.80
2023-03-05T07:48:16.143Z,29.05
2023-03-05T07:50:43.678Z,26.77
2023-03-05T07:53:21.035Z,26.98
2023-03-05T07:55:48.218Z,41.10
2023-03-05T07:58:14.950Z,48.75
2023-03-05T08:00:44.686Z,32.20
2023-03-05T08:03:14.409Z,31.15
2023-03-05T08:05:41.445Z,26.50
2023-03-05T08:08:08.787Z,34.00
2023-03-05T08:10:36.642Z,34.28
2023-03-05T08:13:03.700Z,28.15
2023-03-05T08:15:36.261Z,26.08
2023-03-05T08:18:06.798Z,33.83
2023-03-05T08:20:36.374Z,27.95
2023-03-05T08:23:03.801Z,31.45
2023-03-05T08:25:31.649Z,23.55
2023-03-05T08:28:03.367Z,22.73
2023-03-05T08:30:32.037Z,26.63
2023-03-05T08:32:58.713Z,48.38
2023-03-05T08:35:25.566Z,28.40
2023-03-05T08:37:52.292Z,30.60
2023-03-05T08:40:19.324Z,32.63
2023-03-05T08:42:56.935Z,23.58
2023-03-05T08:45:23.738Z,27.02
2023-03-05T08:47:50.377Z,32.88
2023-03-05T08:50:18.237Z,67.78
2023-03-05T08:52:44.941Z,61.53
2023-03-05T08:55:12.739Z,31.33
2023-03-05T08:57:39.510Z,37.42
2023-03-05T09:00:07.417Z,33.30
2023-03-05T09:02:34.133Z,31.60
2023-03-05T09:05:00.833Z,31.88
2023-03-05T09:07:27.545Z,36.25
2023-03-05T09:09:54.203Z,32.22
2023-03-05T09:12:20.936Z,29.83
2023-03-05T09:14:50.459Z,32.28
2023-03-05T09:17:18.315Z,29.73
2023-03-05T09:19:44.979Z,29.00
2023-03-05T09:22:11.726Z,32.25
2023-03-05T09:24:38.613Z,39.47
2023-03-05T09:27:09.228Z,34.45
2023-03-05T09:29:35.899Z,28.23
2023-03-05T09:32:02.830Z,31.95
2023-03-05T09:37:18.701Z,42.70
2023-03-05T09:39:45.383Z,32.65
2023-03-05T09:42:12.046Z,37.38
2023-03-05T09:45:00.302Z,34.33
2023-03-05T09:47:45.370Z,34.28
2023-03-05T09:50:31.709Z,36.10
2023-03-05T09:53:12.350Z,33.70
2023-03-05T09:56:24.509Z,37.55
2023-03-05T09:58:56.149Z,37.03
2023-03-05T10:01:38.690Z,40.50
2023-03-05T10:06:56.589Z,30.98
2023-03-05T10:10:06.050Z,38.95
2023-03-05T10:12:42.879Z,37.17
2023-03-05T10:15:15.988Z,40.60
2023-03-05T10:18:28.939Z,35.03
2023-03-05T10:21:03.604Z,30.70
2023-03-05T10:23:42.208Z,35.80
2023-03-05T10:26:14.575Z,34.47
2023-03-05T10:32:01.311Z,37.28
2023-03-05T10:34:58.368Z,35.80
2023-03-05T10:37:50.919Z,31.20
2023-03-05T10:40:30.001Z,34.78
2023-03-05T10:43:22.348Z,36.80
2023-03-05T10:45:52.515Z,47.88
2023-03-05T10:48:34.495Z,46.80
2023-03-05T10:51:12.296Z,44.58
2023-03-05T10:53:51.110Z,39.15
2023-03-05T10:56:38.509Z,37.72
2023-03-05T10:59:10.249Z,40.92
2023-03-05T11:01:37.590Z,39.30
2023-03-05T11:04:31.780Z,39.88
2023-03-05T11:06:58.500Z,40.58
2023-03-05T11:09:33.720Z,37.90
2023-03-05T11:12:16.900Z,40.80
2023-03-05T11:14:46.864Z,52.58
2023-03-05T11:17:48.924Z,45.22
2023-03-05T11:20:27.366Z,35.70
2023-03-05T11:23:10.013Z,39.78
2023-03-05T11:25:54.172Z,42.58
2023-03-05T11:28:34.084Z,43.67
2023-03-05T11:31:08.043Z,38.05
2023-03-05T11:33:36.741Z,37.80
2023-03-05T11:36:13.721Z,36.50
2023-03-05T11:38:55.428Z,40.80
2023-03-05T11:41:41.813Z,36.85
2023-03-05T11:44:25.960Z,38.42
2023-03-05T11:47:24.314Z,38.90
2023-03-05T11:49:59.228Z,34.67
2023-03-05T11:52:32.212Z,42.08
2023-03-05T11:55:28.046Z,34.17
2023-03-05T11:58:19.026Z,35.17
2023-03-05T12:00:47.127Z,32.72
2023-03-05T12:03:22.225Z,34.30
2023-03-05T12:05:56.018Z,33.33
2023-03-05T12:08:29.130Z,35.53
2023-03-05T12:10:56.679Z,31.38
2023-03-05T12:13:45.522Z,31.13
2023-03-05T12:16:53.844Z,26.67
2023-03-05T12:19:40.500Z,29.20
2023-03-05T12:22:22.939Z,33.65
2023-03-05T12:24:51.187Z,32.10
2023-03-05T12:27:36.720Z,47.00
2023-03-05T12:30:05.146Z,39.03
2023-03-05T12:32:32.003Z,36.08
2023-03-05T12:35:05.920Z,38.90
2023-03-05T12:37:32.490Z,38.90
2023-03-05T12:40:04.287Z,36.33
2023-03-05T12:42:31.468Z,40.30
2023-03-05T12:45:10.235Z,33.30
2023-03-05T12:47:40.240Z,44.17
2023-03-05T12:50:29.187Z,43.50
2023-03-05T12:53:14.582Z,36.25
2023-03-05T12:55:46.691Z,38.60
2023-03-05T12:58:29.649Z,38.20
2023-03-05T13:01:10.823Z,34.33
2023-03-05T13:03:45.537Z,41.95
2023-03-05T13:06:35.864Z,40.67
2023-03-05T13:09:08.968Z,40.20
2023-03-05T13:11:39.072Z,35.53
2023-03-05T13:14:28.573Z,32.75
2023-03-05T13:16:55.609Z,41.53
2023-03-05T13:19:23.060Z,46.42
2023-03-05T13:22:01.272Z,44.13
2023-03-05T13:24:29.200Z,36.00
2023-03-05T13:26:56.535Z,38.20
2023-03-05T13:29:30.554Z,42.13
2023-03-05T13:32:33.677Z,39.08
2023-03-05T13:35:01.308Z,40.00
2023-03-05T13:37:34.418Z,42.53
2023-03-05T13:40:19.207Z,40.08
2023-03-05T13:42:46.166Z,40.72
2023-03-05T13:45:21.680Z,48.92
2023-03-05T13:48:00.750Z,50.47
2023-03-05T13:50:40.908Z,51.95
2023-03-05T13:53:19.340Z,40.58
2023-03-05T13:55:49.305Z,45.33
2023-03-05T13:58:41.302Z,52.72
2023-03-05T14:01:34.104Z,48.15
2023-03-05T14:04:17.704Z,47.05
2023-03-05T14:07:28.097Z,50.38
2023-03-05T14:09:56.676Z,44.60
2023-03-05T14:12:40.808Z,41.90
2023-03-05T14:15:28.853Z,45.42
2023-03-05T14:18:28.036Z,50.03
2023-03-05T14:21:11.324Z,43.42
2023-03-05T14:23:46.798Z,47.60
2023-03-05T14:26:31.659Z,38.97
2023-03-05T14:29:10.679Z,48.22
2023-03-05T14:31:48.152Z,42.45
2023-03-05T14:34:28.500Z,41.25
2023-03-05T14:36:58.669Z,34.60
2023-03-05T14:39:34.917Z,32.08
2023-03-05T14:42:28.247Z,46.05
2023-03-05T14:44:56.295Z,43.28
2023-03-05T14:47:23.946Z,45.40
2023-03-05T14:49:50.716Z,48.30
2023-03-05T14:52:19.680Z,39.00
2023-03-05T14:54:47.197Z,40.53
2023-03-05T14:57:21.112Z,47.53
2023-03-05T14:59:48.021Z,36.65
2023-03-05T15:02:20.966Z,40.90
2023-03-05T15:04:48.278Z,41.10
2023-03-05T15:07:22.481Z,41.20
2023-03-05T15:09:49.221Z,44.72
2023-03-05T15:12:17.444Z,46.45
2023-03-05T15:14:44.275Z,39.75
2023-03-05T15:17:16.786Z,41.03
2023-03-05T15:19:43.690Z,51.50
2023-03-05T15:22:12.336Z,40.35
2023-03-05T15:24:39.083Z,48.17
2023-03-05T15:27:06.310Z,52.97
2023-03-05T15:29:38.725Z,47.58
2023-03-05T15:32:05.677Z,45.80
2023-03-05T15:34:33.835Z,48.45
2023-03-05T15:37:01.867Z,46.33
2023-03-05T15:39:28.706Z,43.65
2023-03-05T15:41:55.985Z,46.33
2023-03-05T15:44:23.206Z,43.20
2023-03-05T15:46:49.947Z,52.25
2023-03-05T15:49:17.074Z,52.08
2023-03-05T15:51:43.899Z,40.05
2023-03-05T15:54:10.975Z,35.63
2023-03-05T15:56:37.885Z,32.42
2023-03-05T15:59:05.102Z,37.08
2023-03-05T16:01:31.892Z,72.65
2023-03-05T16:03:58.593Z,32.13
2023-03-05T16:06:27.022Z,35.03
2023-03-05T16:08:59.200Z,48.53
2023-03-05T16:11:27.131Z,44.67
2023-03-05T16:13:54.142Z,39.33
2023-03-05T16:16:23.518Z,36.78
2023-03-05T16:18:50.429Z,37.72
2023-03-05T16:21:17.403Z,23.73
2023-03-05T16:23:44.305Z,24.52
2023-03-05T16:26:11.423Z,20.83
2023-03-05T16:28:38.213Z,24.67
2023-03-05T16:31:07.482Z,24.67
2023-03-05T16:33:34.241Z,24.33
2023-03-05T16:36:26.226Z,23.95
2023-03-05T16:38:55.082Z,25.15
2023-03-05T16:41:29.227Z,24.55
2023-03-05T16:43:56.540Z,21.70
2023-03-05T16:46:29.308Z,27.10
2023-03-05T16:48:56.566Z,28.17
2023-03-05T16:51:23.874Z,30.13
2023-03-05T16:53:50.876Z,27.13
2023-03-05T16:56:17.868Z,38.20
2023-03-05T16:58:44.508Z,33.33
2023-03-05T17:01:14.228Z,26.48
2023-03-05T17:03:41.630Z,23.15
2023-03-05T17:06:10.713Z,23.42
2023-03-05T17:08:37.430Z,30.90
2023-03-05T17:11:04.279Z,21.20
2023-03-05T17:13:30.937Z,26.58
2023-03-05T17:15:57.825Z,24.40
2023-03-05T17:18:24.659Z,39.45
2023-03-05T17:20:51.612Z,26.27
2023-03-05T17:23:18.299Z,35.08
2023-03-05T17:25:45.024Z,37.70
2023-03-05T17:28:11.743Z,27.13
2023-03-05T17:30:38.879Z,29.50
2023-03-05T17:33:06.160Z,33.47
2023-03-05T17:35:34.004Z,39.95
2023-03-05T17:38:07.396Z,26.50
2023-03-05T17:40:34.604Z,34.83
2023-03-05T17:43:01.377Z,27.63
2023-03-05T17:45:28.180Z,30.10
2023-03-05T17:47:55.893Z,26.00
2023-03-05T17:50:23.424Z,30.55
2023-03-05T17:52:53.104Z,29.08
2023-03-05T17:55:20.212Z,27.17
2023-03-05T17:57:47.838Z,28.33
2023-03-05T18:00:17.166Z,22.70
2023-03-05T18:02:44.324Z,21.23
2023-03-05T18:05:11.874Z,26.38
2023-03-05T18:07:38.752Z,22.35
2023-03-05T18:10:08.122Z,24.42
2023-03-05T18:12:35.147Z,26.40
2023-03-05T18:15:02.614Z,21.17
2023-03-05T18:17:29.323Z,25.52
2023-03-05T18:19:56.097Z,19.38
2023-03-05T18:22:23.299Z,26.15
2023-03-05T18:24:50.080Z,27.30
2023-03-05T18:27:16.820Z,37.53
2023-03-05T18:29:43.547Z,29.85
2023-03-05T18:32:10.447Z,31.13
2023-03-05T18:34:37.225Z,26.33
2023-03-05T18:37:03.999Z,31.75
2023-03-05T18:39:33.390Z,26.15
2023-03-05T18:42:00.457Z,35.63
2023-03-05T18:44:27.197Z,26.45
2023-03-05T18:46:54.016Z,21.42
2023-03-05T18:49:20.783Z,26.85
2023-03-05T18:51:47.734Z,22.50
2023-03-05T18:54:14.441Z,27.67
2023-03-05T18:56:41.122Z,24.65
2023-03-05T18:59:07.941Z,26.88
2023-03-05T19:01:34.771Z,27.73
2023-03-05T19:04:01.532Z,28.67
2023-03-05T19:06:28.434Z,32.35
2023-03-05T19:08:58.530Z,31.17
2023-03-05T19:11:25.220Z,33.78
2023-03-05T19:13:52.305Z,33.45
2023-03-05T19:16:23.910Z,35.28
2023-03-05T19:19:16.465Z,26.65
2023-03-05T19:24:12.446Z,26.48
2023-03-05T19:26:40.070Z,27.35
2023-03-05T19:29:07.590Z,28.13
2023-03-05T19:31:34.513Z,30.52
2023-03-05T19:34:01.740Z,22.92
2023-03-05T19:36:28.738Z,27.50
2023-03-05T19:38:55.728Z,26.98
2023-03-05T19:41:22.415Z,29.85
2023-03-05T19:43:52.192Z,29.85
2023-03-05T19:46:19.143Z,39.10
2023-03-05T19:48:46.448Z,33.63
2023-03-05T19:51:16.473Z,37.60
2023-03-05T19:53:43.500Z,35.50
2023-03-05T19:56:11.163Z,33.10
2023-03-05T19:58:38.539Z,40.53
2023-03-05T20:01:11.034Z,36.92
2023-03-05T20:03:38.495Z,42.42
2023-03-05T20:06:06.525Z,44.78
2023-03-05T20:08:33.869Z,31.05
2023-03-05T20:11:01.334Z,31.65
2023-03-05T20:13:28.652Z,32.70
2023-03-05T20:15:55.530Z,36.55
2023-03-05T20:18:22.294Z,44.17
2023-03-05T20:21:01.920Z,60.60
2023-03-05T20:23:29.234Z,65.53
2023-03-05T20:25:56.665Z,170.68
2023-03-05T20:28:29.787Z,31.85
2023-03-05T20:30:59.064Z,30.33
2023-03-05T20:33:27.417Z,26.75
2023-03-05T20:35:57.537Z,24.63
2023-03-05T20:38:25.830Z,25.17
2023-03-05T20:40:55.159Z,24.98
2023-03-05T20:43:25.834Z,29.60
2023-03-05T20:45:54.855Z,27.88
2023-03-05T20:48:21.584Z,28.88
2023-03-05T20:50:48.295Z,24.92
2023-03-05T20:53:18.421Z,24.98
2023-03-05T20:55:46.322Z,25.73
2023-03-05T20:58:13.560Z,34.08
2023-03-05T21:00:43.908Z,24.77
2023-03-05T21:03:10.822Z,25.30
2023-03-05T21:05:37.800Z,26.05
2023-03-05T21:08:07.988Z,25.05
2023-03-05T21:10:34.733Z,30.13
2023-03-05T21:13:01.442Z,24.80
2023-03-05T21:15:30.236Z,22.48
2023-03-05T21:17:57.704Z,22.52
2023-03-05T21:20:28.259Z,25.80
2023-03-05T21:22:56.322Z,27.02
2023-03-05T21:25:27.470Z,22.38
2023-03-05T21:27:57.396Z,19.73
2023-03-05T21:30:43.555Z,24.48
2023-03-05T21:33:13.596Z,28.42
2023-03-05T21:35:47.056Z,25.67
2023-03-05T21:38:14.257Z,25.73
2023-03-05T21:40:45.390Z,22.65
2023-03-05T21:43:13.126Z,23.63
2023-03-05T21:45:40.368Z,28.90
2023-03-05T21:48:07.898Z,31.38
2023-03-05T21:50:35.446Z,23.13
2023-03-05T21:53:02.813Z,23.52
2023-03-05T21:55:46.373Z,22.25
2023-03-05T21:58:13.270Z,20.73
2023-03-05T22:00:39.931Z,27.23
2023-03-05T22:03:06.541Z,21.85
2023-03-05T22:05:33.308Z,22.80
2023-03-05T22:08:00.037Z,27.92
2023-03-05T22:10:26.855Z,17.83
2023-03-05T22:13:11.268Z,20.70
2023-03-05T22:15:50.589Z,20.00
2023-03-05T22:18:19.918Z,24.65
2023-03-05T22:20:47.030Z,23.00
2023-03-05T22:23:14.506Z,25.00
2023-03-05T22:25:42.039Z,22.92
2023-03-05T22:28:10.601Z,18.70
2023-03-05T22:30:43.144Z,20.35
2023-03-05T22:33:09.973Z,23.50
2023-03-05T22:35:39.985Z,21.40
2023-03-05T22:38:07.287Z,20.67
2023-03-05T22:40:34.243Z,23.80
2023-03-05T22:43:00.877Z,18.73
2023-03-05T22:45:30.466Z,26.45
2023-03-05T22:47:57.057Z,18.52
2023-03-05T22:50:24.322Z,21.38
2023-03-05T22:52:51.181Z,22.45
2023-03-05T22:55:18.021Z,18.23
2023-03-05T22:57:46.820Z,16.55
2023-03-05T23:00:17.237Z,21.58
2023-03-05T23:02:44.548Z,17.98
2023-03-05T23:05:11.704Z,17.33
2023-03-05T23:07:40.664Z,24.90
2023-03-05T23:10:12.241Z,27.80
2023-03-05T23:12:43.923Z,19.42
2023-03-05T23:15:16.678Z,19.67
2023-03-05T23:17:43.306Z,17.60
2023-03-05T23:20:14.413Z,18.90
2023-03-05T23:22:41.215Z,18.73
2023-03-05T23:25:08.395Z,20.63
2023-03-05T23:27:35.028Z,16.80
2023-03-05T23:30:34.531Z,24.30
2023-03-05T23:33:36.488Z,17.92
2023-03-05T23:36:03.417Z,20.63
2023-03-05T23:38:30.433Z,20.15
2023-03-05T23:41:01.061Z,25.52
2023-03-05T23:43:28.466Z,19.30
2023-03-05T23:45:55.332Z,16.65
2023-03-05T23:48:26.722Z,21.90
2023-03-05T23:50:54.120Z,15.57
2023-03-05T23:53:23.764Z,17.35
2023-03-05T23:55:50.956Z,17.45
2023-03-05T23:58:21.704Z,17.67
